createdAt,value
2023-02-23T00:01:45.061Z,1.9
2023-02-23T00:07:39.051Z,1.9
2023-02-23T00:13:31.602Z,1.8
2023-02-23T00:19:24.046Z,1.8
2023-02-23T00:25:02.431Z,1.7
2023-02-23T00:30:57.616Z,1.6
2023-02-23T00:36:51.936Z,1.7
2023-02-23T00:42:44.908Z,1.5
2023-02-23T00:48:39.117Z,1.4
2023-02-23T00:54:31.837Z,1.3
2023-02-23T01:00:24.486Z,1.3
2023-02-23T01:06:17.604Z,1.5
2023-02-23T01:12:10.468Z,1.6
2023-02-23T01:18:04.081Z,1.6
2023-02-23T01:23:57.557Z,1.6
2023-02-23T01:29:35.054Z,1.5
2023-02-23T01:35:30.508Z,1.4
2023-02-23T01:41:23.891Z,1.3
2023-02-23T01:47:15.892Z,1.3
2023-02-23T01:52:53.531Z,1.2
2023-02-23T01:58:47.209Z,1.1
2023-02-23T02:04:24.321Z,1.1
2023-02-23T02:10:17.687Z,0.9
2023-02-23T02:16:11.393Z,0.8
2023-02-23T02:21:48.160Z,0.7
2023-02-23T02:27:26.727Z,0.6
2023-02-23T02:33:20.372Z,0.4
2023-02-23T02:39:13.691Z,0.3
2023-02-23T02:45:07.023Z,0.2
2023-02-23T02:50:45.229Z,0.1
2023-02-23T02:56:22.906Z,0
2023-02-23T03:01:59.767Z,-0.1
2023-02-23T03:07:37.426Z,-0.2
2023-02-23T03:12:59.188Z,-0.2
2023-02-23T03:18:37.107Z,-0.3
2023-02-23T03:24:14.979Z,-0.3
2023-02-23T03:29:52.226Z,-0.4
2023-02-23T03:35:13.397Z,-0.4
2023-02-23T03:40:20.499Z,-0.4
2023-02-23T03:45:58.893Z,-0.5
2023-02-23T03:51:36.921Z,-0.5
2023-02-23T03:57:15.392Z,-0.5
2023-02-23T04:02:52.364Z,-0.4
2023-02-23T04:08:30.058Z,-0.4
2023-02-23T04:13:53.066Z,-0.4
2023-02-23T04:19:14.220Z,-0.4
2023-02-23T04:24:51.134Z,-0.4
2023-02-23T04:30:29.292Z,-0.3
2023-02-23T04:36:22.676Z,-0.4
2023-02-23T04:41:44.363Z,-0.4
2023-02-23T04:47:22.029Z,-0.4
2023-02-23T04:52:59.995Z,-0.4
2023-02-23T04:58:56.218Z,-0.4
2023-02-23T05:04:51.960Z,-0.5
2023-02-23T05:10:43.048Z,-0.5
2023-02-23T05:16:36.287Z,-0.6
2023-02-23T05:22:30.395Z,-0.6
2023-02-23T05:28:22.686Z,-0.7
2023-02-23T05:34:17.285Z,-0.7
2023-02-23T05:40:10.948Z,-0.6
2023-02-23T05:46:02.540Z,-0.6
2023-02-23T05:51:40.765Z,-0.5
2023-02-23T05:57:19.486Z,-0.4
2023-02-23T06:02:55.812Z,-0.1
2023-02-23T06:08:48.702Z,0.4
2023-02-23T06:14:42.340Z,2.5
2023-02-23T06:20:33.920Z,5.6
2023-02-23T06:26:27.180Z,8.7
2023-02-23T06:32:22.809Z,12.1
2023-02-23T06:38:15.065Z,15.6
2023-02-23T06:44:07.130Z,19.2
2023-02-23T06:49:59.925Z,22.8
2023-02-23T06:55:37.667Z,26.2
2023-02-23T07:01:32.521Z,29.7
2023-02-23T07:07:26.099Z,33.3
2023-02-23T07:13:19.287Z,36.6
2023-02-23T07:19:15.849Z,39.9
2023-02-23T07:25:09.176Z,43.3
2023-02-23T07:31:01.713Z,46.8
2023-02-23T07:36:55.856Z,48.5
2023-02-23T07:42:50.579Z,51.9
2023-02-23T07:48:43.653Z,44.7
2023-02-23T07:54:35.978Z,43.9
2023-02-23T08:00:31.201Z,47.8
2023-02-23T08:06:24.113Z,52.6
2023-02-23T08:12:18.723Z,46.7
2023-02-23T08:18:11.509Z,46.1
2023-02-23T08:24:16.382Z,53.8
2023-02-23T08:30:08.873Z,50.3
2023-02-23T08:36:03.404Z,49.3
2023-02-23T08:41:56.329Z,49.5
2023-02-23T08:47:49.305Z,48.1
2023-02-23T08:53:42.146Z,46.8
2023-02-23T08:59:18.633Z,46.4
2023-02-23T09:05:11.133Z,55.4
2023-02-23T09:11:04.585Z,51.6
2023-02-23T09:16:56.978Z,49.8
2023-02-23T09:22:50.300Z,51.8
2023-02-23T09:28:31.126Z,53.1
2023-02-23T09:34:08.640Z,54.3
2023-02-23T09:39:57.066Z,53.8
2023-02-23T09:45:36.030Z,55.1
2023-02-23T09:51:28.523Z,56.4
2023-02-23T09:57:21.981Z,57.3
2023-02-23T10:03:15.763Z,57.6
2023-02-23T10:08:54.937Z,58.2
2023-02-23T10:14:50.617Z,58.8
2023-02-23T10:20:46.621Z,58.3
2023-02-23T10:26:39.534Z,58.3
2023-02-23T10:38:15.930Z,57.9
2023-02-23T10:49:53.613Z,58.9
2023-02-23T10:55:37.136Z,60.2
2023-02-23T11:01:30.192Z,60.4
2023-02-23T11:07:47.859Z,60.9
2023-02-23T11:13:58.561Z,59.3
2023-02-23T11:20:04.728Z,56.4
2023-02-23T11:26:07.116Z,52.8
2023-02-23T11:32:00.255Z,56.9
2023-02-23T11:37:53.148Z,57.4
2023-02-23T11:43:46.078Z,49.8
2023-02-23T11:49:44.241Z,49.1
2023-02-23T12:01:14.805Z,54.1
2023-02-23T12:07:08.482Z,54.1
2023-02-23T12:12:46.326Z,55.3
2023-02-23T12:18:39.979Z,59.6
2023-02-23T12:24:32.911Z,52.2
2023-02-23T12:30:37.254Z,46.1
2023-02-23T12:36:30.495Z,43.4
2023-02-23T12:42:23.988Z,42.7
2023-02-23T12:48:16.468Z,42.9
2023-02-23T12:53:54.784Z,43
2023-02-23T12:59:49.596Z,43.4
2023-02-23T13:05:42.558Z,42.7
2023-02-23T13:11:42.967Z,41.9
2023-02-23T13:17:36.379Z,41.6
2023-02-23T13:23:14.284Z,40.7
2023-02-23T13:28:51.519Z,39.9
2023-02-23T13:34:39.883Z,38.8
2023-02-23T13:40:46.080Z,37.2
2023-02-23T13:46:38.580Z,35.6
2023-02-23T13:52:39.255Z,34.2
2023-02-23T13:58:41.273Z,32.8
2023-02-23T14:04:35.770Z,31.7
2023-02-23T14:09:59.673Z,30.8
2023-02-23T14:15:55.599Z,29.8
2023-02-23T14:21:58.350Z,28.8
2023-02-23T14:28:07.872Z,27.7
2023-02-23T14:33:55.486Z,26.4
2023-02-23T14:40:00.375Z,25
2023-02-23T14:46:05.024Z,23.9
2023-02-23T14:52:12.047Z,22.9
2023-02-23T14:57:56.088Z,22.1
2023-02-23T15:04:05.745Z,21.3
2023-02-23T15:09:58.304Z,20.6
2023-02-23T15:15:58.007Z,19.8
2023-02-23T15:22:02.297Z,19.1
2023-02-23T15:28:09.372Z,18.3
2023-02-23T15:34:03.929Z,17.7
2023-02-23T15:40:29.493Z,17.1
2023-02-23T15:46:31.425Z,16.5
2023-02-23T15:52:37.456Z,15.9
2023-02-23T15:58:15.642Z,15.4
2023-02-23T16:04:16.937Z,14.9
2023-02-23T16:10:19.225Z,14.3
2023-02-23T16:16:12.414Z,13.8
2023-02-23T16:22:15.323Z,13.4
2023-02-23T16:28:16.075Z,13
2023-02-23T16:33:38.673Z,12.8
2023-02-23T16:39:16.094Z,12.5
2023-02-23T16:45:17.348Z,12.3
2023-02-23T16:51:16.181Z,12
2023-02-23T16:57:08.894Z,11.8
2023-02-23T17:03:04.042Z,11.6
2023-02-23T17:08:58.193Z,11.4
2023-02-23T17:14:52.582Z,11.2
2023-02-23T17:20:45.463Z,11.1
2023-02-23T17:26:38.830Z,10.9
2023-02-23T17:32:36.495Z,10.7
2023-02-23T17:38:29.622Z,10.6
2023-02-23T17:44:23.012Z,10.4
2023-02-23T17:50:16.901Z,10.2
2023-02-23T17:56:11.902Z,10.1
2023-02-23T18:02:05.987Z,9.9
2023-02-23T18:07:59.221Z,9.8
2023-02-23T18:13:36.615Z,9.6
2023-02-23T18:19:30.238Z,9.5
2023-02-23T18:25:25.293Z,9.4
2023-02-23T18:31:02.044Z,9.3
2023-02-23T18:36:57.247Z,9.2
2023-02-23T18:42:50.630Z,9.1
2023-02-23T18:48:27.832Z,8.9
2023-02-23T18:54:05.134Z,8.9
2023-02-23T19:00:01.333Z,8.8
2023-02-23T19:05:56.311Z,8.7
2023-02-23T19:11:33.969Z,8.6
2023-02-23T19:17:40.954Z,8.4
2023-02-23T19:23:34.583Z,8.3
2023-02-23T19:29:11.611Z,8.2
2023-02-23T19:35:07.134Z,8.1
2023-02-23T19:40:59.737Z,7.9
2023-02-23T19:46:52.256Z,7.9
2023-02-23T19:52:46.041Z,7.9
2023-02-23T19:58:37.105Z,7.8
2023-02-23T20:04:30.271Z,7.7
2023-02-23T20:10:24.895Z,7.6
2023-02-23T20:16:17.286Z,7.6
2023-02-23T20:22:10.083Z,7.6
2023-02-23T20:28:02.922Z,7.5
2023-02-23T20:33:58.065Z,7.4
2023-02-23T20:39:50.975Z,7.4
2023-02-23T20:45:44.883Z,7.4
2023-02-23T20:51:37.663Z,7.4
2023-02-23T20:57:15.805Z,7.4
2023-02-23T21:02:55.101Z,7.3
2023-02-23T21:08:48.266Z,7.3
2023-02-23T21:14:41.389Z,7.4
2023-02-23T21:20:20.908Z,7.3
2023-02-23T21:26:14.264Z,7.4
2023-02-23T21:31:39.714Z,7.4
2023-02-23T21:37:33.865Z,7.4
2023-02-23T21:43:26.585Z,7.4
2023-02-23T21:49:19.830Z,7.4
2023-02-23T21:55:21.109Z,7.4
2023-02-23T22:01:13.507Z,7.4
2023-02-23T22:07:06.557Z,7.4
2023-02-23T22:12:43.451Z,7.4
2023-02-23T22:18:36.648Z,7.4
2023-02-23T22:24:29.895Z,7.4
2023-02-23T22:30:22.949Z,7.4
2023-02-23T22:36:16.142Z,7.4
2023-02-23T22:41:53.453Z,7.4
2023-02-23T22:47:46.797Z,7.3
2023-02-23T22:54:23.442Z,7.3
2023-02-23T23:00:00.890Z,7.3
2023-02-23T23:05:54.658Z,7.3
2023-02-23T23:11:48.329Z,7.3
2023-02-23T23:18:00.836Z,7.3
2023-02-23T23:23:54.043Z,7.2
2023-02-23T23:29:45.791Z,7.1
2023-02-23T23:35:41.267Z,7.1
2023-02-23T23:41:33.495Z,7.1
2023-02-23T23:47:26.213Z,7
2023-02-23T23:53:19.409Z,7
2023-02-23T23:59:13.147Z,6.9
